createdAt,value
2018-08-28T03:01:17.829Z,0.00
2018-08-28T03:02:43.360Z,0.00
2018-08-28T03:03:25.010Z,0.00
2018-08-28T03:04:28.962Z,0.00
2018-08-28T03:06:00.925Z,0.00
2018-08-28T03:07:20.425Z,0.00
2018-08-28T03:08:14.605Z,0.00
2018-08-28T03:09:27.433Z,0.00
2018-08-28T03:18:16.547Z,0.00
2018-08-28T03:19:09.484Z,0.00
2018-08-28T03:20:48.273Z,0.00
2018-08-28T03:21:17.146Z,0.00
2018-08-28T03:22:15.423Z,0.00
2018-08-28T03:23:12.381Z,0.00
2018-08-28T03:24:10.008Z,0.00
2018-08-28T03:25:11.486Z,0.00
2018-08-28T03:26:08.824Z,0.00
2018-08-28T03:27:07.929Z,0.00
2018-08-28T03:28:07.068Z,0.00
2018-08-28T03:29:07.492Z,0.00
2018-08-28T03:30:07.662Z,0.00
2018-08-28T03:31:07.925Z,0.00
2018-08-28T03:32:07.890Z,0.00
2018-08-28T03:33:08.368Z,0.00
2018-08-28T03:34:07.925Z,0.00
2018-08-28T03:35:08.200Z,0.00
2018-08-28T03:36:08.742Z,0.00
2018-08-28T03:37:08.888Z,0.00
2018-08-28T03:38:08.875Z,0.00
2018-08-28T03:39:09.138Z,0.00
2018-08-28T03:40:09.997Z,0.00
2018-08-28T03:41:10.144Z,0.00
2018-08-28T03:42:09.144Z,0.00
2018-08-28T03:43:09.433Z,0.00
2018-08-28T03:44:09.750Z,0.00
2018-08-28T03:45:09.887Z,0.00
2018-08-28T03:46:10.097Z,0.00
2018-08-28T03:47:10.320Z,0.00
2018-08-28T03:48:10.621Z,0.00
2018-08-28T03:49:11.456Z,0.00
2018-08-28T03:50:10.823Z,0.00
2018-08-28T03:51:10.947Z,0.00
2018-08-28T03:52:11.141Z,0.00
2018-08-28T03:53:11.168Z,0.00
2018-08-28T03:54:11.355Z,0.00
2018-08-28T03:55:11.890Z,0.00
2018-08-28T03:56:12.519Z,0.00
2018-08-28T03:57:11.985Z,0.00
2018-08-28T03:58:12.742Z,0.00
2018-08-28T03:59:12.383Z,0.00
2018-08-28T04:00:12.912Z,0.00
2018-08-28T04:01:13.563Z,0.00
2018-08-28T04:02:13.528Z,0.00
2018-08-28T04:03:13.629Z,0.00
2018-08-28T04:04:13.797Z,0.00
2018-08-28T04:05:14.803Z,0.00
2018-08-28T04:06:14.522Z,0.00
2018-08-28T04:07:14.496Z,0.00
2018-08-28T04:08:14.162Z,0.00
2018-08-28T04:09:14.669Z,0.00
2018-08-28T04:10:14.718Z,0.00
2018-08-28T04:11:15.027Z,0.00
2018-08-28T04:12:14.826Z,0.00
2018-08-28T04:13:14.940Z,0.00
2018-08-28T04:14:15.694Z,0.00
2018-08-28T04:15:16.010Z,0.00
2018-08-28T04:16:15.891Z,0.00
2018-08-28T04:17:15.851Z,0.00
2018-08-28T04:18:18.210Z,0.00
2018-08-28T04:19:17.456Z,0.00
2018-08-28T04:20:17.803Z,0.00
2018-08-28T04:21:17.028Z,5.63
2018-08-28T04:22:17.316Z,5.63
2018-08-28T04:23:17.247Z,5.63
2018-08-28T04:24:17.432Z,5.63
2018-08-28T04:25:17.406Z,5.63
2018-08-28T04:26:18.744Z,5.63
2018-08-28T04:27:17.796Z,5.63
2018-08-28T04:28:22.468Z,11.25
2018-08-28T04:29:18.161Z,11.25
2018-08-28T04:30:19.529Z,11.25
2018-08-28T04:31:21.495Z,11.25
2018-08-28T04:32:19.437Z,11.25
2018-08-28T04:33:19.903Z,16.88
2018-08-28T04:34:19.012Z,16.88
2018-08-28T04:35:19.428Z,16.88
2018-08-28T04:36:20.078Z,22.50
2018-08-28T04:37:21.288Z,22.50
2018-08-28T04:38:19.700Z,22.50
2018-08-28T04:39:20.124Z,22.50
2018-08-28T04:40:20.000Z,28.13
2018-08-28T04:41:20.002Z,28.13
2018-08-28T04:43:20.162Z,33.75
2018-08-28T04:44:21.027Z,33.75
2018-08-28T04:45:21.190Z,33.75
2018-08-28T04:46:20.797Z,39.38
2018-08-28T04:47:21.800Z,39.38
2018-08-28T04:48:21.679Z,39.38
2018-08-28T04:49:21.943Z,45.00
2018-08-28T04:50:21.496Z,45.00
2018-08-28T04:51:21.305Z,50.63
2018-08-28T04:52:22.249Z,50.63
2018-08-28T04:53:21.709Z,50.63
2018-08-28T04:54:21.971Z,56.25
2018-08-28T04:55:22.483Z,56.25
2018-08-28T04:56:22.541Z,56.25
2018-08-28T04:57:22.780Z,61.88
2018-08-28T04:58:22.753Z,61.88
2018-08-28T04:59:22.850Z,67.50
2018-08-28T05:00:22.865Z,67.50
2018-08-28T05:01:23.567Z,67.50
2018-08-28T05:02:23.424Z,73.13
2018-08-28T05:03:23.992Z,73.13
2018-08-28T05:04:23.618Z,78.75
2018-08-28T05:05:24.330Z,78.75
2018-08-28T05:06:24.146Z,78.75
2018-08-28T05:07:24.615Z,84.38
2018-08-28T05:08:27.449Z,84.38
2018-08-28T05:09:24.527Z,90.00
2018-08-28T05:10:24.809Z,90.00
2018-08-28T05:11:24.893Z,90.00
2018-08-28T05:12:25.081Z,95.63
2018-08-28T05:13:25.246Z,95.63
2018-08-28T05:14:25.408Z,101.25
2018-08-28T05:15:25.314Z,101.25
2018-08-28T05:16:26.334Z,101.25
2018-08-28T05:17:25.666Z,106.88
2018-08-28T05:18:26.194Z,106.88
2018-08-28T05:19:27.477Z,112.50
2018-08-28T05:25:26.384Z,123.75
2018-08-28T05:26:26.225Z,123.75
2018-08-28T05:28:28.495Z,129.38
2018-08-28T05:31:48.052Z,135.00
2018-08-28T05:33:40.326Z,140.63
2018-08-28T05:36:52.931Z,146.25
2018-08-28T05:38:35.630Z,146.25
2018-08-28T05:43:32.735Z,157.50
2018-08-28T05:44:57.584Z,163.13
2018-08-28T05:46:23.711Z,163.13
2018-08-28T05:46:47.721Z,168.75
2018-08-28T05:56:34.414Z,196.88
2018-08-28T06:01:15.298Z,219.38
2018-08-28T06:01:44.970Z,219.38
2018-08-28T06:03:45.684Z,225.00
2018-08-28T06:04:44.683Z,230.63
2018-08-28T06:06:01.071Z,230.63
2018-08-28T06:06:45.993Z,230.63
2018-08-28T06:09:34.169Z,236.25
2018-08-28T06:10:27.588Z,241.88
2018-08-28T06:11:28.555Z,241.88
2018-08-28T06:52:15.555Z,354.38
2018-08-28T06:57:42.246Z,360.00
2018-08-28T06:58:19.341Z,365.63
2018-08-28T06:59:19.860Z,365.63
2018-08-28T07:01:18.192Z,371.25
2018-08-28T07:02:17.476Z,371.25
2018-08-28T07:03:15.903Z,376.88
2018-08-28T07:04:16.036Z,376.88
2018-08-28T07:05:16.220Z,382.50
2018-08-28T07:06:16.334Z,382.50
2018-08-28T07:07:16.543Z,388.13
2018-08-28T07:08:16.679Z,393.75
2018-08-28T07:10:17.291Z,393.75
2018-08-28T07:11:17.395Z,399.38
2018-08-28T07:12:17.290Z,399.38
2018-08-28T07:13:17.512Z,405.00
2018-08-28T07:14:17.747Z,410.63
2018-08-28T07:15:17.908Z,410.63
2018-08-28T07:16:18.036Z,410.63
2018-08-28T07:17:18.244Z,416.25
2018-08-28T07:18:18.403Z,416.25
2018-08-28T07:19:18.640Z,421.88
2018-08-28T07:20:18.779Z,421.88
2018-08-28T07:21:19.006Z,427.50
2018-08-28T07:22:18.996Z,427.50
2018-08-28T07:23:19.148Z,427.50
2018-08-28T07:24:19.350Z,438.75
2018-08-28T07:25:21.304Z,433.13
2018-08-28T07:26:37.296Z,438.75
2018-08-28T07:27:23.541Z,438.75
2018-08-28T07:28:24.234Z,438.75
2018-08-28T07:29:24.504Z,444.38
2018-08-28T07:31:23.962Z,450.00
2018-08-28T07:32:22.887Z,450.00
2018-08-28T07:33:21.227Z,450.00
2018-08-28T07:34:21.378Z,455.63
2018-08-28T07:35:21.285Z,455.63
2018-08-28T07:36:21.672Z,461.25
2018-08-28T07:37:21.909Z,466.88
2018-08-28T07:38:22.128Z,472.50
2018-08-28T07:39:22.119Z,478.13
2018-08-28T07:40:22.211Z,478.13
2018-08-28T07:41:22.747Z,483.75
2018-08-28T07:42:22.613Z,489.38
2018-08-28T07:43:23.045Z,489.38
2018-08-28T07:44:23.026Z,495.00
2018-08-28T07:45:23.349Z,495.00
2018-08-28T07:46:23.474Z,500.63
2018-08-28T07:47:23.679Z,506.25
2018-08-28T07:48:23.825Z,511.88
2018-08-28T07:49:24.114Z,517.50
2018-08-28T07:50:24.168Z,523.13
2018-08-28T07:51:24.310Z,540.00
2018-08-28T07:52:24.490Z,562.50
2018-08-28T07:53:24.685Z,568.13
2018-08-28T07:54:24.846Z,573.75
2018-08-28T07:55:25.006Z,585.00
2018-08-28T07:56:25.516Z,601.88
2018-08-28T07:57:25.805Z,607.50
2018-08-28T07:58:25.496Z,624.38
2018-08-28T07:59:25.712Z,646.88
2018-08-28T08:00:25.961Z,658.13
2018-08-28T08:01:26.557Z,675.00
2018-08-28T08:02:26.326Z,691.88
2018-08-28T08:03:26.434Z,708.75
2018-08-28T08:04:26.704Z,725.63
2018-08-28T08:05:26.793Z,748.13
2018-08-28T08:06:26.965Z,765.00
2018-08-28T08:07:27.128Z,793.13
2018-08-28T08:08:27.268Z,810.00
2018-08-28T08:09:27.534Z,832.50
2018-08-28T08:10:27.777Z,843.75
2018-08-28T08:11:28.037Z,849.38
2018-08-28T08:12:28.089Z,849.38
2018-08-28T08:13:28.311Z,860.63
2018-08-28T08:14:28.460Z,877.50
2018-08-28T08:15:28.614Z,877.50
2018-08-28T08:16:28.908Z,905.63
2018-08-28T08:17:28.940Z,922.50
2018-08-28T08:18:29.097Z,928.13
2018-08-28T08:19:29.297Z,950.63
2018-08-28T08:20:29.460Z,984.38
2018-08-28T08:21:29.539Z,1012.50
2018-08-28T08:22:29.739Z,1068.75
2018-08-28T08:23:29.892Z,1102.50
2018-08-28T08:24:30.071Z,1113.75
2018-08-28T08:25:30.328Z,1147.50
2018-08-28T08:26:30.521Z,1153.13
2018-08-28T08:27:30.702Z,1164.38
2018-08-28T08:28:30.841Z,1186.88
2018-08-28T08:29:31.025Z,1203.75
2018-08-28T08:30:31.153Z,1220.63
2018-08-28T08:31:31.340Z,1243.13
2018-08-28T08:32:31.520Z,1260.00
2018-08-28T08:33:31.735Z,1288.13
2018-08-28T08:34:31.850Z,1316.25
2018-08-28T08:35:31.976Z,1327.50
2018-08-28T08:36:32.293Z,1350.00
2018-08-28T08:37:32.394Z,1366.88
2018-08-28T08:38:32.565Z,1378.13
2018-08-28T08:39:32.859Z,1400.63
2018-08-28T08:40:32.956Z,1423.13
2018-08-28T08:41:33.123Z,1440.00
2018-08-28T08:42:33.247Z,1473.75
2018-08-28T08:43:33.466Z,1490.63
2018-08-28T08:44:33.597Z,1490.63
2018-08-28T08:45:33.750Z,1513.13
2018-08-28T08:46:33.932Z,1535.63
2018-08-28T08:47:34.079Z,1575.00
2018-08-28T08:48:34.221Z,1586.25
2018-08-28T08:49:34.334Z,1625.63
2018-08-28T08:50:34.573Z,1653.75
2018-08-28T08:51:34.797Z,1653.75
2018-08-28T08:52:34.970Z,1693.13
2018-08-28T08:53:35.166Z,1743.75
2018-08-28T08:54:35.228Z,1755.00
2018-08-28T08:55:35.385Z,1771.88
2018-08-28T08:56:35.565Z,1805.63
2018-08-28T08:57:35.838Z,1811.25
2018-08-28T08:58:35.940Z,1839.38
2018-08-28T08:59:36.163Z,1861.88
2018-08-28T09:00:36.266Z,1867.50
2018-08-28T09:01:36.535Z,1895.63
2018-08-28T09:02:36.652Z,1935.00
2018-08-28T09:03:36.825Z,1980.00
2018-08-28T09:04:37.013Z,2019.38
2018-08-28T09:05:37.238Z,2036.25
2018-08-28T09:06:37.413Z,2058.75
2018-08-28T09:07:37.637Z,2070.00
2018-08-28T09:08:37.713Z,2064.38
2018-08-28T09:09:37.883Z,2064.38
2018-08-28T09:10:38.118Z,2053.13
2018-08-28T09:11:38.297Z,2070.00
2018-08-28T09:12:38.411Z,1783.13
2018-08-28T09:13:38.607Z,2025.00
2018-08-28T09:14:38.884Z,871.88
2018-08-28T09:15:38.978Z,826.88
2018-08-28T09:16:39.201Z,1260.00
2018-08-28T09:17:39.264Z,826.88
2018-08-28T09:18:39.459Z,787.50
2018-08-28T09:19:39.671Z,765.00
2018-08-28T09:20:39.815Z,736.88
2018-08-28T09:21:40.043Z,714.38
2018-08-28T09:22:40.270Z,731.25
2018-08-28T09:23:40.421Z,669.38
2018-08-28T09:24:40.554Z,652.50
2018-08-28T09:25:40.796Z,624.38
2018-08-28T09:26:41.000Z,607.50
2018-08-28T09:27:41.092Z,585.00
2018-08-28T09:28:41.380Z,551.25
2018-08-28T09:29:41.476Z,528.75
2018-08-28T09:30:41.670Z,500.63
2018-08-28T09:31:41.885Z,489.38
2018-08-28T09:32:42.073Z,489.38
2018-08-28T09:33:42.239Z,483.75
2018-08-28T09:34:42.518Z,472.50
2018-08-28T09:35:42.583Z,461.25
2018-08-28T09:36:42.655Z,455.63
2018-08-28T09:37:42.920Z,461.25
2018-08-28T09:38:43.190Z,472.50
2018-08-28T09:39:43.325Z,472.50
2018-08-28T09:40:43.372Z,478.13
2018-08-28T09:41:43.576Z,495.00
2018-08-28T09:42:43.696Z,511.88
2018-08-28T09:43:44.014Z,517.50
2018-08-28T09:44:44.180Z,534.38
2018-08-28T09:45:44.227Z,545.63
2018-08-28T09:46:44.465Z,551.25
2018-08-28T09:47:44.660Z,556.88
2018-08-28T09:48:44.755Z,568.13
2018-08-28T09:49:44.962Z,579.38
2018-08-28T09:50:45.161Z,585.00
2018-08-28T09:51:45.269Z,601.88
2018-08-28T09:52:45.492Z,624.38
2018-08-28T09:53:45.652Z,635.63
2018-08-28T09:54:45.873Z,652.50
2018-08-28T09:55:45.963Z,691.88
2018-08-28T09:56:46.091Z,736.88
2018-08-28T09:57:46.372Z,765.00
2018-08-28T09:58:46.451Z,787.50
2018-08-28T09:59:46.665Z,748.13
2018-08-28T10:00:46.770Z,765.00
2018-08-28T10:01:47.035Z,826.88
2018-08-28T10:02:47.188Z,905.63
2018-08-28T10:03:47.252Z,933.75
2018-08-28T10:04:47.610Z,2655.00
2018-08-28T10:05:47.753Z,1411.88
2018-08-28T10:06:47.832Z,1833.75
2018-08-28T10:07:48.093Z,3150.00
2018-08-28T10:08:48.199Z,3189.38
2018-08-28T10:09:48.485Z,3228.75
2018-08-28T10:10:48.618Z,3296.25
2018-08-28T10:11:48.726Z,3352.50
2018-08-28T10:12:49.002Z,3391.88
2018-08-28T10:13:49.151Z,3453.75
2018-08-28T10:14:49.318Z,3465.00
2018-08-28T10:15:49.430Z,3538.13
2018-08-28T10:16:49.613Z,3532.50
2018-08-28T10:17:49.809Z,3498.75
2018-08-28T10:18:49.912Z,3470.63
2018-08-28T10:19:50.106Z,3178.13
2018-08-28T10:20:50.329Z,1428.75
2018-08-28T10:21:50.523Z,1895.63
2018-08-28T10:22:50.778Z,1344.38
2018-08-28T10:23:50.895Z,1372.50
2018-08-28T10:24:51.049Z,1361.25
2018-08-28T10:25:51.284Z,1310.63
2018-08-28T10:26:51.410Z,1378.13
2018-08-28T10:27:51.659Z,1383.75
2018-08-28T10:28:51.796Z,1108.13
2018-08-28T10:29:52.006Z,1080.00
2018-08-28T10:30:52.100Z,1068.75
2018-08-28T10:31:52.327Z,1085.63
2018-08-28T10:32:52.538Z,1096.88
2018-08-28T10:33:52.704Z,1125.00
2018-08-28T10:34:52.939Z,1136.25
2018-08-28T10:35:53.060Z,1175.63
2018-08-28T10:36:53.246Z,1344.38
2018-08-28T10:37:53.443Z,1957.50
2018-08-28T10:38:53.696Z,1383.75
2018-08-28T10:39:53.770Z,1305.00
2018-08-28T10:40:53.852Z,1243.13
2018-08-28T10:41:54.083Z,1198.13
2018-08-28T10:42:54.361Z,1164.38
2018-08-28T10:43:54.479Z,1119.38
2018-08-28T10:44:54.712Z,1080.00
2018-08-28T10:45:54.938Z,1051.88
2018-08-28T10:46:55.191Z,1051.88
2018-08-28T10:47:55.151Z,1063.13
2018-08-28T10:48:55.390Z,1091.25
2018-08-28T10:49:55.531Z,1102.50
2018-08-28T10:50:55.671Z,1130.63
2018-08-28T10:51:55.831Z,1170.00
2018-08-28T10:52:56.164Z,1119.38
2018-08-28T10:53:56.176Z,1051.88
2018-08-28T10:54:56.455Z,1040.63
2018-08-28T10:55:56.587Z,1096.88
2018-08-28T10:56:56.747Z,1091.25
2018-08-28T10:57:56.877Z,1051.88
2018-08-28T10:58:57.080Z,973.13
2018-08-28T10:59:57.281Z,933.75
2018-08-28T11:00:57.446Z,928.13
2018-08-28T11:01:57.632Z,945.00
2018-08-28T11:02:57.835Z,984.38
2018-08-28T11:03:57.869Z,1029.38
2018-08-28T11:04:58.165Z,1080.00
2018-08-28T11:05:58.354Z,1141.88
2018-08-28T11:06:58.387Z,1198.13
2018-08-28T11:07:58.612Z,1321.88
2018-08-28T11:08:58.815Z,1839.38
2018-08-28T11:09:58.951Z,3060.00
2018-08-28T11:10:59.146Z,4134.38
2018-08-28T11:11:59.338Z,4100.63
2018-08-28T11:12:59.456Z,4106.25
2018-08-28T11:13:59.634Z,4072.50
2018-08-28T11:14:59.837Z,4044.38
2018-08-28T11:15:59.941Z,3999.38
2018-08-28T11:17:00.161Z,3965.63
2018-08-28T11:18:00.444Z,3926.25
2018-08-28T11:19:00.510Z,3886.88
2018-08-28T11:20:00.616Z,3898.13
2018-08-28T11:21:00.861Z,3836.25
2018-08-28T11:22:01.088Z,3886.88
2018-08-28T11:23:01.225Z,3819.38
2018-08-28T11:24:01.381Z,3819.38
2018-08-28T11:25:01.591Z,3853.13
2018-08-28T11:26:01.742Z,3746.25
2018-08-28T11:27:01.911Z,3408.75
2018-08-28T11:28:02.106Z,3875.63
2018-08-28T11:29:02.338Z,4055.63
2018-08-28T11:30:02.502Z,3898.13
2018-08-28T11:31:02.672Z,3920.63
2018-08-28T11:32:02.797Z,2868.75
2018-08-28T11:33:03.002Z,1423.13
2018-08-28T11:34:03.131Z,3577.50
2018-08-28T11:35:03.291Z,3853.13
2018-08-28T11:36:03.479Z,4123.13
2018-08-28T11:37:03.681Z,4140.00
2018-08-28T11:38:04.054Z,4162.50
2018-08-28T11:39:04.159Z,4173.75
2018-08-28T11:40:04.236Z,4196.25
2018-08-28T11:41:04.459Z,4179.38
2018-08-28T11:42:04.711Z,4145.63
2018-08-28T11:43:04.932Z,4128.75
2018-08-28T11:44:05.018Z,4196.25
2018-08-28T11:45:05.236Z,3346.88
2018-08-28T11:46:05.418Z,3667.50
2018-08-28T11:47:05.635Z,4230.00
2018-08-28T11:48:05.745Z,4246.88
2018-08-28T11:49:05.944Z,4303.13
2018-08-28T11:50:06.317Z,4258.13
2018-08-28T11:51:06.354Z,4280.63
2018-08-28T11:52:06.538Z,4291.88
2018-08-28T11:53:06.752Z,4325.63
2018-08-28T11:54:06.955Z,4314.38
2018-08-28T11:55:07.077Z,4286.25
2018-08-28T11:56:07.321Z,4241.25
2018-08-28T11:57:07.517Z,4303.13
2018-08-28T11:58:07.677Z,4095.00
2018-08-28T11:59:07.800Z,4275.00
2018-08-28T12:00:07.986Z,4213.13
2018-08-28T12:01:08.161Z,4156.88
2018-08-28T12:02:08.414Z,3774.38
2018-08-28T12:03:08.565Z,4230.00
2018-08-28T12:04:08.699Z,4280.63
2018-08-28T12:05:09.066Z,4297.50
2018-08-28T12:06:09.038Z,4308.75
2018-08-28T12:07:09.399Z,4280.63
2018-08-28T12:08:09.440Z,2002.50
2018-08-28T12:09:09.583Z,3999.38
2018-08-28T12:10:09.786Z,4168.13
2018-08-28T12:11:09.979Z,4168.13
2018-08-28T12:12:10.225Z,4128.75
2018-08-28T12:13:10.378Z,4066.88
2018-08-28T12:14:10.649Z,3813.75
2018-08-28T12:15:10.702Z,4151.25
2018-08-28T12:16:10.941Z,4213.13
2018-08-28T12:17:11.189Z,4314.38
2018-08-28T12:18:11.328Z,4365.00
2018-08-28T12:19:11.546Z,4415.63
2018-08-28T12:20:11.665Z,4426.88
2018-08-28T12:21:11.838Z,4415.63
2018-08-28T12:22:12.030Z,4410.00
2018-08-28T12:23:12.298Z,4449.38
2018-08-28T12:24:12.388Z,4449.38
2018-08-28T12:25:13.255Z,4483.13
2018-08-28T12:26:12.830Z,4471.88
2018-08-28T12:27:12.965Z,4466.25
2018-08-28T12:28:13.076Z,4488.75
2018-08-28T12:29:13.343Z,4443.75
2018-08-28T12:30:13.524Z,4477.50
2018-08-28T12:31:13.628Z,4500.00
2018-08-28T12:32:14.695Z,4550.63
2018-08-28T12:33:14.043Z,4578.75
2018-08-28T12:34:14.177Z,4545.00
2018-08-28T12:35:14.440Z,4494.38
2018-08-28T12:36:14.627Z,4505.63
2018-08-28T12:37:14.845Z,4545.00
2018-08-28T12:38:14.975Z,4505.63
2018-08-28T12:39:15.243Z,4471.88
2018-08-28T12:40:15.379Z,4376.25
2018-08-28T12:41:15.559Z,4308.75
2018-08-28T12:42:15.807Z,4280.63
2018-08-28T12:43:15.926Z,4252.50
2018-08-28T12:44:16.035Z,4224.38
2018-08-28T12:45:16.255Z,4235.63
2018-08-28T12:46:16.509Z,4275.00
2018-08-28T12:47:16.637Z,4336.88
2018-08-28T12:48:16.875Z,4365.00
2018-08-28T12:49:17.056Z,4348.13
2018-08-28T12:50:17.159Z,4246.88
2018-08-28T12:51:17.458Z,4156.88
2018-08-28T12:52:17.586Z,4117.50
2018-08-28T12:53:17.811Z,4173.75
2018-08-28T12:54:17.902Z,4286.25
2018-08-28T12:55:18.032Z,4314.38
2018-08-28T12:56:18.358Z,4258.13
2018-08-28T12:57:19.197Z,4190.63
2018-08-28T12:58:18.682Z,4297.50
2018-08-28T12:59:18.960Z,4303.13
2018-08-28T13:00:19.024Z,4297.50
2018-08-28T13:01:19.187Z,4297.50
2018-08-28T13:02:19.447Z,4336.88
2018-08-28T13:03:19.655Z,4370.63
2018-08-28T13:04:19.724Z,4376.25
2018-08-28T13:05:19.928Z,4348.13
2018-08-28T13:06:20.123Z,4224.38
2018-08-28T13:07:20.447Z,3870.00
2018-08-28T13:08:20.541Z,3751.88
2018-08-28T13:09:20.652Z,3931.88
2018-08-28T13:10:20.876Z,3948.75
2018-08-28T13:11:21.128Z,3330.00
2018-08-28T13:12:21.294Z,3735.00
2018-08-28T13:13:21.450Z,3043.13
2018-08-28T13:14:21.635Z,3442.50
2018-08-28T13:15:21.871Z,3386.25
2018-08-28T13:16:22.014Z,3926.25
2018-08-28T13:17:22.212Z,4066.88
2018-08-28T13:18:22.448Z,4218.75
2018-08-28T13:19:22.594Z,4230.00
2018-08-28T13:20:22.778Z,4258.13
2018-08-28T13:21:22.905Z,3346.88
2018-08-28T13:22:23.090Z,4162.50
2018-08-28T13:23:23.442Z,4196.25
2018-08-28T13:24:23.469Z,4179.38
2018-08-28T13:25:23.807Z,4162.50
2018-08-28T13:26:24.779Z,3898.13
2018-08-28T13:27:24.009Z,4005.00
2018-08-28T13:28:24.206Z,4117.50
2018-08-28T13:29:24.385Z,4111.88
2018-08-28T13:30:24.629Z,4089.38
2018-08-28T13:31:24.797Z,4201.88
2018-08-28T13:32:24.960Z,4151.25
2018-08-28T13:33:25.070Z,4134.38
2018-08-28T13:34:25.322Z,3954.38
2018-08-28T13:35:25.498Z,3971.25
2018-08-28T13:36:25.687Z,3802.50
2018-08-28T13:37:25.861Z,3622.50
2018-08-28T13:38:26.113Z,3813.75
2018-08-28T13:39:26.201Z,3819.38
2018-08-28T13:40:26.385Z,3718.13
2018-08-28T13:41:26.485Z,3875.63
2018-08-28T13:42:26.672Z,3937.50
2018-08-28T13:43:26.915Z,3971.25
2018-08-28T13:44:27.103Z,3273.75
2018-08-28T13:45:27.233Z,3791.25
2018-08-28T13:46:27.484Z,3993.75
2018-08-28T13:47:27.692Z,4033.13
2018-08-28T13:48:27.797Z,4066.88
2018-08-28T13:49:28.042Z,4095.00
2018-08-28T13:50:28.221Z,4027.50
2018-08-28T13:51:28.355Z,3988.13
2018-08-28T13:52:28.594Z,3943.13
2018-08-28T13:53:28.766Z,3768.75
2018-08-28T13:54:29.096Z,3684.38
2018-08-28T13:55:29.076Z,3740.63
2018-08-28T13:56:30.102Z,3442.50
2018-08-28T13:57:29.411Z,3583.13
2018-08-28T13:58:29.636Z,3706.88
2018-08-28T13:59:29.798Z,3746.25
2018-08-28T14:00:29.969Z,3892.50
2018-08-28T14:01:30.186Z,3965.63
2018-08-28T14:02:30.406Z,4021.88
2018-08-28T14:03:30.533Z,4044.38
2018-08-28T14:04:30.676Z,3965.63
2018-08-28T14:05:30.838Z,4033.13
2018-08-28T14:06:31.017Z,4005.00
2018-08-28T14:07:31.233Z,3976.88
2018-08-28T14:08:31.486Z,3853.13
2018-08-28T14:09:31.614Z,3847.50
2018-08-28T14:10:31.770Z,3729.38
2018-08-28T14:11:31.949Z,3701.25
2018-08-28T14:12:32.669Z,3678.75
2018-08-28T14:13:32.344Z,3594.38
2018-08-28T14:14:32.496Z,3549.38
2018-08-28T14:15:32.537Z,3487.50
2018-08-28T14:16:32.787Z,3481.88
2018-08-28T14:17:32.970Z,3515.63
2018-08-28T14:18:33.136Z,3526.88
2018-08-28T14:19:33.280Z,3532.50
2018-08-28T14:20:33.443Z,3431.25
2018-08-28T14:21:33.667Z,3234.38
2018-08-28T14:22:34.311Z,3307.50
2018-08-28T14:23:34.077Z,3549.38
2018-08-28T14:24:34.189Z,3729.38
2018-08-28T14:25:34.408Z,3735.00
2018-08-28T14:26:34.714Z,3706.88
2018-08-28T14:27:34.806Z,3667.50
2018-08-28T14:28:35.009Z,3645.00
2018-08-28T14:29:35.142Z,3616.88
2018-08-28T14:30:35.390Z,3465.00
2018-08-28T14:31:35.498Z,3425.63
2018-08-28T14:32:35.839Z,3290.63
2018-08-28T14:33:35.997Z,2953.13
2018-08-28T14:34:36.098Z,2908.13
2018-08-28T14:35:36.368Z,3020.63
2018-08-28T14:36:36.480Z,3082.50
2018-08-28T14:37:36.643Z,3161.25
2018-08-28T14:38:36.843Z,3397.50
2018-08-28T14:39:37.052Z,3425.63
2018-08-28T14:40:37.247Z,2992.50
2018-08-28T14:41:37.353Z,3369.38
2018-08-28T14:42:37.611Z,3301.88
2018-08-28T14:43:37.788Z,3504.38
2018-08-28T14:44:37.906Z,3588.75
2018-08-28T14:45:38.100Z,3667.50
2018-08-28T14:46:38.336Z,2981.25
2018-08-28T14:47:38.527Z,3301.88
2018-08-28T14:48:38.629Z,3628.13
2018-08-28T14:49:38.791Z,3493.13
2018-08-28T14:50:39.103Z,3481.88
2018-08-28T14:51:39.176Z,3363.75
2018-08-28T14:52:39.325Z,3285.00
2018-08-28T14:53:39.621Z,3105.00
2018-08-28T14:54:39.707Z,3290.63
2018-08-28T14:55:39.885Z,3408.75
2018-08-28T14:56:40.113Z,3138.75
2018-08-28T14:57:40.275Z,2896.88
2018-08-28T14:58:40.386Z,3358.13
2018-08-28T14:59:40.689Z,3301.88
2018-08-28T15:00:40.782Z,3341.25
2018-08-28T15:01:40.905Z,2570.63
2018-08-28T15:02:41.223Z,3279.38
2018-08-28T15:03:41.297Z,2475.00
2018-08-28T15:04:41.606Z,2958.75
2018-08-28T15:05:41.757Z,2953.13
2018-08-28T15:06:41.863Z,1710.00
2018-08-28T15:07:42.025Z,2131.88
2018-08-28T15:08:42.334Z,1800.00
2018-08-28T15:09:42.411Z,1980.00
2018-08-28T15:10:42.625Z,2115.00
2018-08-28T15:11:42.836Z,1816.88
2018-08-28T15:12:43.077Z,1693.13
2018-08-28T15:13:43.324Z,2486.25
2018-08-28T15:14:43.447Z,3217.50
2018-08-28T15:15:43.591Z,1642.50
2018-08-28T15:16:43.845Z,1816.88
2018-08-28T15:17:43.853Z,1051.88
2018-08-28T15:18:44.075Z,1929.38
2018-08-28T15:19:44.239Z,2441.25
2018-08-28T15:20:44.393Z,2109.38
2018-08-28T15:21:44.583Z,2013.75
2018-08-28T15:22:44.728Z,1980.00
2018-08-28T15:23:44.960Z,1653.75
2018-08-28T15:24:45.133Z,2925.00
2018-08-28T15:25:45.279Z,3015.00
2018-08-28T15:26:45.524Z,2953.13
2018-08-28T15:27:45.690Z,2913.75
2018-08-28T15:28:45.843Z,2857.50
2018-08-28T15:29:46.082Z,2818.13
2018-08-28T15:30:46.241Z,2761.88
2018-08-28T15:31:46.320Z,2711.25
2018-08-28T15:32:46.661Z,2649.38
2018-08-28T15:33:46.722Z,2576.25
2018-08-28T15:34:46.916Z,2503.13
2018-08-28T15:35:47.091Z,2446.88
2018-08-28T15:36:47.346Z,2430.00
2018-08-28T15:37:47.505Z,2486.25
2018-08-28T15:38:47.661Z,2520.00
2018-08-28T15:39:47.905Z,2570.63
2018-08-28T15:40:48.026Z,2615.63
2018-08-28T15:41:48.224Z,2626.88
2018-08-28T15:42:48.476Z,2638.13
2018-08-28T15:43:48.596Z,2638.13
2018-08-28T15:44:48.789Z,2615.63
2018-08-28T15:45:48.885Z,2604.38
2018-08-28T15:46:49.080Z,2570.63
2018-08-28T15:47:49.398Z,2542.50
2018-08-28T15:48:49.503Z,2491.88
2018-08-28T15:49:49.788Z,2430.00
2018-08-28T15:50:49.818Z,2368.13
2018-08-28T15:51:50.056Z,2311.88
2018-08-28T15:52:50.201Z,2272.50
2018-08-28T15:53:50.322Z,2255.63
2018-08-28T15:54:50.545Z,2255.63
2018-08-28T15:55:50.702Z,2221.88
2018-08-28T15:56:51.929Z,1918.13
2018-08-28T15:57:51.009Z,1800.00
2018-08-28T15:58:51.283Z,1940.63
2018-08-28T15:59:52.617Z,1085.63
2018-08-28T16:01:04.353Z,641.25
2018-08-28T16:01:59.679Z,798.75
2018-08-28T16:02:55.340Z,551.25
2018-08-28T16:03:59.672Z,697.50
2018-08-28T16:04:56.018Z,815.63
2018-08-28T16:06:07.841Z,573.75
2018-08-28T16:07:01.531Z,455.63
2018-08-28T16:08:03.655Z,444.38
2018-08-28T16:08:58.074Z,590.63
2018-08-28T16:12:04.086Z,478.13
2018-08-28T16:13:04.172Z,433.13
2018-08-28T16:14:03.650Z,455.63
2018-08-28T16:15:10.873Z,444.38
2018-08-28T16:16:11.519Z,416.25
2018-08-28T16:17:13.570Z,410.63
2018-08-28T16:18:05.112Z,410.63
2018-08-28T16:19:15.692Z,405.00
2018-08-28T16:21:53.356Z,399.38
2018-08-28T16:23:25.564Z,624.38
2018-08-28T16:24:06.901Z,601.88
2018-08-28T16:25:07.662Z,478.13
2018-08-28T16:26:08.876Z,382.50
2018-08-28T16:27:08.676Z,382.50
2018-08-28T16:29:07.571Z,371.25
2018-08-28T16:33:16.827Z,354.38
2018-08-28T16:33:53.347Z,354.38
2018-08-28T16:37:53.262Z,337.50
2018-08-28T16:40:01.692Z,354.38
2018-08-28T16:40:52.672Z,320.63
2018-08-28T16:41:52.565Z,320.63
2018-08-28T16:42:53.162Z,326.25
2018-08-28T16:43:52.096Z,326.25
2018-08-28T16:44:51.208Z,309.38
2018-08-28T16:45:50.410Z,354.38
2018-08-28T16:46:51.386Z,388.13
2018-08-28T16:47:51.959Z,410.63
2018-08-28T16:48:51.294Z,416.25
2018-08-28T16:49:52.018Z,371.25
2018-08-28T16:52:26.749Z,281.25
2018-08-28T16:52:55.669Z,275.63
2018-08-28T16:56:06.291Z,264.38
2018-08-28T16:57:59.547Z,253.13
2018-08-28T16:58:56.019Z,253.13
2018-08-28T17:00:55.204Z,247.50
2018-08-28T17:01:56.038Z,241.88
2018-08-28T17:02:57.801Z,236.25
2018-08-28T17:03:54.697Z,236.25
2018-08-28T17:04:56.748Z,230.63
2018-08-28T17:07:09.269Z,225.00
2018-08-28T17:12:21.104Z,208.13
2018-08-28T17:14:18.188Z,202.50
2018-08-28T17:18:07.620Z,185.63
2018-08-28T17:24:45.856Z,157.50